Datum max min   Außentemperatur Tagesdurchschnitt Außenfeuchte Tagesdurchschnitt Taupunkt Tagesdurchschnitt Windchill Tagesdurchschnitt Windgeschwindigkeit Tagesdurchschnitt   Mindesttemperatur Höchsttemperatur Höchste Windgeschwindigkeit  Tägliche Niederschlagsmenge 
  °C % °C °C km/h   °C °C km/h mm/m²
 
mittelwert
01.01.1971     1009,8 -12,2           -15,6 -8,0   0,0
02.01.1971     1015,4 -15,2           -19,5 -11,3   0,0
03.01.1971     1011,4 -10,7           -20,7 -8,2   0,1
04.01.1971     1017,5 -10,2           -12,0 -9,0   0,0
05.01.1971     1018,1 -13,2           -15,7 -9,3   0,0
06.01.1971     1023,9 -14,1           -20,5 -7,1   0,0
07.01.1971     1028,9 -10,6           -17,3 -5,0   0,0
08.01.1971     1026,2 -6,8           -12,3 -2,7   0,0
09.01.1971     1027,4 -4,7           -9,7 -0,5   0,0
10.01.1971     1027,8 -2,3           -9,2 3,8   0,0
11.01.1971     1020,2 -0,5           -4,9 2,8   0,0
12.01.1971     1019,1 -4,3           -6,5 0,4   0,0
13.01.1971     1021,9 -3,1           -9,7 0,5   0,0
14.01.1971     1018,5 -1,1           -4,2 2,6   0,0
15.01.1971     1013,1 -3,8           -7,0 -1,9   2,1
16.01.1971     1012,3 0,0           -4,0 0,8   1,2
17.01.1971     1011,5 0,0           -1,3 0,9   0,0
18.01.1971     1010,7 -3,2           -3,9 -0,7   0,0
19.01.1971     1002,9 -0,2           -4,9 1,2   4,7
20.01.1971     1000,2 1,1           0,1 3,0   0,4
21.01.1971     990,2 0,0           -0,9 1,5   0,0
22.01.1971     993,9 1,3           -0,8 2,5   0,1
23.01.1971     999,7 2,3           0,6 3,6   6,4
24.01.1971     1001,7 2,8           1,5 5,2   2,8
25.01.1971     1002,7 4,2           1,4 6,3   0,0
26.01.1971     1001,3 4,0           2,1 5,4   8,0
27.01.1971     996,9 3,8           3,2 6,6   10,1
28.01.1971     1008,3 2,2           1,2 3,7   2,1
29.01.1971     1014,5 0,7           -0,9 3,4   0,8
30.01.1971     1009,8 -1,2           -4,1 3,0   0,0
31.01.1971     1001,8 -1,3           -2,4 0,5   0,0
01.02.1971     1009,1 -3,4           -5,3 -0,1   0,4
02.02.1971     1027,0 -5,8           -7,5 -3,1   0,0
03.02.1971     1019,4 -2,2           -7,5 0,2   3,2
04.02.1971     1028,2 -1,3           -3,5 1,4   0,5
05.02.1971     1031,9 1,2           -3,0 2,1   0,4
06.02.1971     1029,9 0,0           -0,5 1,0   0,1
07.02.1971     1024,1 -0,2           -0,6 0,4   0,6
08.02.1971     1023,1 1,2           -1,0 1,7   4,5
09.02.1971     1023,7 1,8           1,0 3,1   0,1
10.02.1971     1021,8 0,1           -1,6 4,1   0,0
11.02.1971     1022,3 -0,8           -2,7 -0,2   0,0
12.02.1971     1018,3 0,2           -3,1 2,0   0,0
13.02.1971     1007,1 3,4           -0,5 3,0   4,4
14.02.1971     999,1 0,9           -1,3 3,3   0,3
15.02.1971     998,9 1,0           -1,1 4,0   0,0
16.02.1971     993,3 0,8           -2,2 4,1   0,1
17.02.1971     1003,4 0,0           -1,3 2,0   0,2
18.02.1971     999,9 0,6           -2,6 1,5   0,0
19.02.1971     1007,7 1,0           0,0 3,9   5,6
20.02.1971     1015,0 -1,4           -2,8 1,2   0,0
21.02.1971     1013,9 -1,4           -4,6 0,2   1,4
22.02.1971     1015,1 0,8           -0,7 1,6   1,5
23.02.1971     1020,7 -1,2           -2,2 0,6   2,1
24.02.1971     1021,9 -0,2           -2,3 1,4   1,6
25.02.1971     1013,7 0,5           -0,1 1,3   5,3
26.02.1971     1012,6 -7,2           -8,4 0,2   1,2
27.02.1971     1015,9 -10,6           -14,5 -7,5   0,6
28.02.1971     1014,5 -7,3           -10,8 -5,9   7,3
01.03.1971     1020,6 -7,4           -9,5 -5,5   0,4
02.03.1971     1019,0 -6,7           -9,0 -4,3   0,5
03.03.1971     1017,8 -11,2           -13,0 -7,0   0,3
04.03.1971     1021,7 -11,9           -17,6 -9,4   1,2
05.03.1971     1019,4 -12,3           -14,5 -9,4   0,8
06.03.1971     1018,7 -11,4           -17,1 -10,4   0,9
07.03.1971     1019,0 -7,3           -10,6 -5,9   1,0
08.03.1971     1019,0 -5,3           -8,4 1,5   0,0
09.03.1971     1011,1 -3,7           -13,8 0,4   1,3
10.03.1971     1014,7 -2,8           -4,7 -0,5   1,7
11.03.1971     1017,4 -4,0           -5,8 -1,2   1,0
12.03.1971     1023,0 -4,3           -13,2 -0,7   0,2
13.03.1971     1015,7 1,5           -2,0 4,6   0,0
14.03.1971     1006,7 2,0           -5,4 7,7   0,0
15.03.1971     1001,0 2,5           -2,1 7,7   0,1
16.03.1971     1004,1 0,8           0,3 2,5   1,4
17.03.1971     1005,5 3,0           -2,9 6,5   0,0
18.03.1971     999,7 6,3           -0,5 11,5   0,0
19.03.1971     996,5 5,7           1,7 12,4   0,0
20.03.1971     1001,0 7,0           0,0 11,4   0,0
21.03.1971     999,8 7,4           1,6 14,6   0,1
22.03.1971     997,0 1,2           0,0 6,7   2,5
23.03.1971     1012,5 -0,4           -4,4 2,5   0,3
24.03.1971     1017,3 2,0           -1,7 6,6   0,0
25.03.1971     1009,7 4,3           1,6 7,0   1,5
26.03.1971     1008,6 2,2           0,5 7,0   0,7
27.03.1971     1012,6 0,9           -0,7 5,0   0,0
28.03.1971     1016,9 -0,2           -2,9 3,9   0,0
29.03.1971     1013,4 1,0           -4,1 4,9   0,0
30.03.1971     1012,5 0,8           -0,3 1,3   0,1
31.03.1971     1011,9 1,8           0,7 4,7   0,0
01.04.1971     1004,1 5,1           -0,3 11,5   0,0
02.04.1971     997,9 5,8           2,2 9,5   0,0
03.04.1971     997,8 7,8           3,5 12,5   2,9
04.04.1971     998,7 7,7           2,0 15,0   0,0
05.04.1971     1000,6 7,6           3,5 12,9   0,6
06.04.1971     1006,3 7,9           2,5 13,2   0,2
07.04.1971     1010,2 7,6           1,6 14,0   0,1
08.04.1971     1011,4 8,0           0,2 15,4   0,0
09.04.1971     1012,9 7,9           0,8 13,0   0,0
10.04.1971     1019,8 5,4           4,4 8,6   0,0
11.04.1971     1021,8 4,6           3,0 7,0   0,0
12.04.1971     1018,9 5,9           0,9 11,7   0,0
13.04.1971     1018,3 6,9           0,8 12,1   0,0
14.04.1971     1023,0 4,8           -0,8 11,2   0,0
15.04.1971     1018,9 8,8           -2,6 17,0   0,0
16.04.1971     1008,9 12,2           -1,1 18,8   3,0
17.04.1971     1009,9 4,4           1,2 13,4   1,2
18.04.1971     1020,7 6,4           -2,5 14,0   0,0
19.04.1971     1020,5 9,6           -2,0 18,8   0,0
20.04.1971     1019,0 7,6           1,5 11,3   2,3
21.04.1971     1021,7 8,6           2,3 16,5   0,0
22.04.1971     1018,3 12,8           3,4 19,5   0,0
23.04.1971     1006,7 14,1           6,8 19,6   2,0
24.04.1971     998,3 8,2           6,2 13,7   28,8
25.04.1971     1003,7 2,7           1,4 6,4   8,2
26.04.1971     1008,7 2,8           0,0 5,5   5,2
27.04.1971     1004,9 3,2           0,6 8,1   1,8
28.04.1971     1015,7 1,7           -0,7 6,2   0,0
29.04.1971     1015,8 4,7           -1,4 10,7   0,0
30.04.1971     1017,3 3,1           -2,6 8,5   0,0
01.05.1971     1012,2 4,3           -1,5 8,1   0,1
02.05.1971     1013,8 1,8           1,1 3,7   0,1
03.05.1971     1015,5 4,8           1,9 8,1   0,0
04.05.1971     1015,8 8,0           -0,3 13,5   0,0
05.05.1971     1016,5 9,2           1,0 14,2   0,0
06.05.1971     1019,3 9,6           2,8 15,4   0,0
07.05.1971     1019,0 10,2           2,7 16,6   0,0
08.05.1971     1019,3 12,2           3,4 19,0   0,0
09.05.1971     1020,9 15,0           6,4 21,7   0,8
10.05.1971     1023,8 10,0           8,8 14,2   0,2
11.05.1971     1022,7 14,0           5,3 21,5   0,0
12.05.1971     1016,6 18,0           8,7 24,3   0,0
13.05.1971     1015,3 15,9           9,6 23,7   2,2
14.05.1971     1014,7 14,0           9,2 21,6   8,0
15.05.1971     1009,7 14,0           9,7 20,2   9,1
16.05.1971     1009,1 16,2           10,8 21,8   0,0
17.05.1971     1009,8 20,0           10,5 27,3   0,0
18.05.1971     1010,7 19,7           11,4 28,5   2,4
19.05.1971     1013,1 17,2           12,7 23,1   0,0
20.05.1971     1011,1 16,6           10,1 23,1   0,0
21.05.1971     1008,7 12,7           11,2 15,9   39,6
22.05.1971     1006,6 11,0           10,4 12,4   6,9
23.05.1971     1003,0 10,6           9,1 13,3   6,4
24.05.1971     1003,1 9,4           7,5 10,9   0,3
25.05.1971     1005,9 11,9           8,3 16,2   27,8
26.05.1971     1006,3 10,4           9,1 14,2   4,0
27.05.1971     1004,2 13,3           3,6 17,9   1,1
28.05.1971     1004,7 12,0           8,4 16,0   0,0
29.05.1971     1013,7 10,5           8,0 13,6   2,2
30.05.1971     1018,1 11,9           9,8 15,5   0,0
31.05.1971     1018,9 12,7           10,3 15,4   0,0
01.06.1971     1019,3 13,4           11,5 18,9   9,2
02.06.1971     1017,4 16,0           8,4 22,9   0,0
03.06.1971     1015,3 16,1           10,0 22,5   0,0
04.06.1971     1010,7 14,7           10,5 21,1   0,5
05.06.1971     1005,3 16,2           10,2 22,0   0,7
06.06.1971     1004,9 15,0           11,5 18,7   0,6
07.06.1971     1007,7 12,8           11,4 14,5   1,7
08.06.1971     1010,5 12,7           11,4 17,5   2,6
09.06.1971     1009,8 12,3           10,0 16,5   3,7
10.06.1971     1006,1 12,6           10,9 18,0   0,0
11.06.1971     1005,7 12,7           8,3 17,8   0,0
12.06.1971     1008,7 10,5           9,4 14,6   5,7
13.06.1971     1013,8 9,7           7,8 12,9   0,4
14.06.1971     1011,1 13,9           3,4 19,4   1,0
15.06.1971     1008,3 10,7           8,6 12,8   2,1
16.06.1971     1017,3 7,6           5,5 10,9   1,0
17.06.1971     1019,9 9,4           5,0 14,5   0,0
18.06.1971     1018,9 7,8           6,3 12,4   2,8
19.06.1971     1010,7 8,2           5,5 9,1   16,7
20.06.1971     1014,5 10,4           7,1 12,2   5,7
21.06.1971     1014,9 9,4           8,3 12,2   0,0
22.06.1971     1012,2 11,1           4,7 17,1   4,4
23.06.1971     1017,0 10,7           7,1 14,4   0,0
24.06.1971     1013,4 14,0           4,4 20,4   0,0
25.06.1971     1012,3 16,4           5,8 22,1   0,0
26.06.1971     1010,3 17,0           10,7 22,7   5,3
27.06.1971     1012,7 11,9           10,3 15,5   3,0
28.06.1971     1011,3 11,0           7,5 15,5   8,0
29.06.1971     1015,3 9,8           6,0 13,1   1,2
30.06.1971     1014,2 9,2           5,6 13,5   0,2
01.07.1971     1018,5 9,5           6,8 14,3   0,1
02.07.1971     1018,1 12,9           4,7 18,4   0,0
03.07.1971     1016,7 12,0           9,6 16,5   0,2
04.07.1971     1015,1 15,0           8,4 19,1   0,0
05.07.1971     1017,5 16,4           8,9 21,7   0,0
06.07.1971     1025,4 17,5           12,1 22,6   0,0
07.07.1971     1028,7 19,4           9,4 23,2   0,0
08.07.1971     1026,1 21,1           9,1 25,1   0,0
09.07.1971     1022,3 22,0           11,9 27,7   0,0
10.07.1971     1021,8 20,2           12,6 27,5   0,0
11.07.1971     1023,5 20,0           15,0 25,8   0,0
12.07.1971     1021,8 2,8           14,5 25,6   0,0
13.07.1971     1024,5 13,7           11,4 18,5   0,0
14.07.1971     1022,5 13,4           7,0 19,4   2,0
15.07.1971     1018,3 14,4           10,5 18,5   0,1
16.07.1971     1014,9 12,1           8,9 20,4   0,0
17.07.1971     1014,5 12,7           6,5 18,1   0,0
18.07.1971     1015,1 12,8           4,5 18,2   0,0
19.07.1971     1017,3 12,2           6,8 18,0   0,0
20.07.1971     1018,5 13,7           6,2 16,3   0,0
21.07.1971     1018,2 15,2           5,1 18,7   0,0
22.07.1971     1015,4 17,7           8,4 19,7   0,0
23.07.1971     1012,7 19,8           7,2 25,6   0,0
24.07.1971     1013,7 20,9           10,5 25,5   7,2
25.07.1971     1017,8 21,0           12,6 27,5   0,0
26.07.1971     1022,1 23,8           16,0 27,3   0,0
27.07.1971     1020,9 21,1           12,6 31,9   0,0
28.07.1971     1019,4 17,2           15,6 29,6   4,5
29.07.1971     1021,4 19,6           13,9 23,2   0,0
30.07.1971     1019,8 22,6           9,8 26,2   0,0
31.07.1971     1016,9 19,5           12,1 30,0   0,0
01.08.1971     1016,2 21,5           16,2 25,0   0,0
02.08.1971     1015,5 22,5           15,1 27,1   0,0
03.08.1971     1013,1 16,8           12,5 31,7   7,5
04.08.1971     1015,0 17,5           14,6 22,4   0,0
05.08.1971     1012,6 22,3           10,3 24,6   0,0
06.08.1971     1014,1 19,0           10,0 29,5   0,0
07.08.1971     1018,7 15,5           16,2 27,0   0,1
08.08.1971     1023,5 16,2           12,0 19,8   3,8
09.08.1971     1021,1 18,2           8,5 21,7   0,0
10.08.1971     1012,9 18,6           7,9 26,0   0,0
11.08.1971     1010,5 14,6           12,4 24,0   0,2
12.08.1971     1015,7 16,9           10,5 19,9   0,0
13.08.1971     1014,2 22,1           4,7 23,7   0,0
14.08.1971     1012,7 17,5           12,7 29,1   11,2
15.08.1971     1016,2 14,1           14,5 23,1   0,0
16.08.1971     1020,6 14,0           9,5 19,8   0,0
17.08.1971     1021,8 17,2           5,0 21,4   0,0
18.08.1971     1020,1 21,2           7,8 25,7   0,0
19.08.1971     1018,6 21,3           10,0 30,2   0,0
20.08.1971     1014,2 17,4           13,1 29,4   0,0
21.08.1971     1016,1 14,8           12,5 22,9   16,0
22.08.1971     1014,7 14,6           12,7 17,3   0,8
23.08.1971     1016,2 10,1           11,5 20,5   9,6
24.08.1971     1021,5 12,6           9,0 11,7   0,0
25.08.1971     1018,9 14,0           8,5 19,2   9,9
26.08.1971     1011,0 14,4           8,0 18,1   6,1
27.08.1971     1011,7 12,5           12,9 17,4   1,9
28.08.1971     1020,2 14,2           9,3 16,6   0,0
29.08.1971     1017,5 15,4           10,8 20,2   0,0
30.08.1971     1012,2 11,8           10,0 21,4   2,8
31.08.1971     1014,6 12,6           10,8 16,8   2,7
01.09.1971     1019,5 12,5           7,4 17,0   0,0
02.09.1971     1021,7 13,1           10,5 17,4   0,7
03.09.1971     1025,5 16,0           4,1 20,6   0,0
04.09.1971     1023,3 12,3           7,5 23,6   0,0
05.09.1971     1025,3 10,2           10,5 17,5   0,0
06.09.1971     1027,0 9,4           7,7 15,5   0,0
07.09.1971     1028,6 10,6           1,9 15,9   0,0
08.09.1971     1023,4 7,7           3,9 15,0   0,0
09.09.1971     1014,7 9,2           2,6 12,6   0,2
10.09.1971     1010,6 9,0           6,5 10,8   2,2
11.09.1971     1015,4 8,5           8,4 11,1   0,2
12.09.1971     1018,2 8,4           5,4 11,3   5,1
13.09.1971     1019,9 6,2           5,6 13,4   0,3
14.09.1971     1020,3 4,6           1,0 11,2   1,1
15.09.1971     1024,5 5,2           1,8 9,6   0,1
16.09.1971     1027,0 5,3           -0,5 8,7   0,1
17.09.1971     1025,3 8,0           3,3 11,1   0,0
18.09.1971     1020,3 9,2           1,4 9,5   7,5
19.09.1971     1021,8 9,3           4,8 16,0   0,0
20.09.1971     1025,3 10,0           1,4 16,3   0,0
21.09.1971     1026,6 12,6           1,5 18,8   0,0
22.09.1971     1024,9 14,6           3,6 21,8   0,0
23.09.1971     1020,5 12,7           5,5 22,4   0,0
24.09.1971     1019,1 13,1           12,2 17,0   2,6
25.09.1971     1019,4 9,6           9,5 17,0   0,0
26.09.1971     1019,0 11,7           7,6 14,6   2,5
27.09.1971     1016,6 10,3           6,5 17,4   0,1
28.09.1971     1015,5 9,2           9,1 13,6   0,0
29.09.1971     1019,9 10,0           8,5 9,6   1,2
30.09.1971     1028,6 10,6           6,6 15,3   0,2
01.10.1971     1029,8 12,1           2,6 18,2   0,0
02.10.1971     1025,1 9,6           4,5 22,1   0,0
03.10.1971     1021,0 7,5           3,2 17,5   0,0
04.10.1971     1020,6 2,9           4,3 11,2   0,7
05.10.1971     1032,5 3,3           0,3 8,4   0,0
06.10.1971     1033,0 9,0           -3,7 11,7   0,0
07.10.1971     1027,1 9,2           -1,8 14,8   0,0
08.10.1971     1023,5 7,7           2,2 15,4   0,0
09.10.1971     1019,3 7,2           0,6 12,8   0,0
10.10.1971     1020,2 10,6           2,7 15,5   0,0
11.10.1971     1020,5 11,1           7,9 17,4   0,0
12.10.1971     1017,9 10,6           2,5 17,8   0,0
13.10.1971     1013,9 9,0           6,1 11,4   11,6
14.10.1971     1011,1 2,9           -0,2 9,1   11,2
15.10.1971     1026,9 0,6           -0,5 3,7   0,1
16.10.1971     1030,5 -0,1           -4,5 5,9   0,0
17.10.1971     1020,7 3,0           -2,6 8,2   0,0
18.10.1971     1019,7 9,5           3,1 11,8   0,0
19.10.1971     1019,4 9,9           7,7 15,1   0,0
20.10.1971     1021,8 9,8           7,4 12,9   0,0
21.10.1971     1025,5 8,1           5,6 9,0   0,1
22.10.1971     1022,9 10,3           7,9 12,6   0,0
23.10.1971     1027,0 11,3           8,4 17,2   0,1
24.10.1971     1026,2 11,0           2,6 18,8   0,0
25.10.1971     1024,2 10,8           5,3 16,4   0,0
26.10.1971     1030,7 4,2           1,7 9,5   0,0
27.10.1971     1034,3 0,6           -2,5 6,7   0,2
28.10.1971     1031,9 1,5           -4,0 8,2   0,0
29.10.1971     1028,6 3,4           -3,2 10,7   0,0
30.10.1971     1024,6 1,9           -2,1 8,8   0,0
31.10.1971     1025,0 3,2           -3,8 8,5   0,0
01.11.1971     1028,5 5,2           0,9 6,0   0,0
02.11.1971     1029,9 5,6           4,0 7,8   0,0
03.11.1971     1029,8 5,0           3,7 7,5   0,0
04.11.1971     1026,1 7,0           3,0 12,4   0,0
05.11.1971     1015,8 6,9           2,5 11,7   0,0
06.11.1971     1007,8 8,2           5,4 12,9   0,8
07.11.1971     1013,7 2,9           0,3 7,6   0,0
08.11.1971     1005,1 3,8           -0,3 6,8   3,7
09.11.1971     1006,3 3,7           2,8 5,5   1,2
10.11.1971     1011,3 0,2           -0,2 3,1   7,9
11.11.1971     1012,9 -1,6           -1,8 -0,2   0,2
12.11.1971     1013,4 -1,8           -2,4 -0,5   0,4
13.11.1971     1012,1 0,6           -2,0 1,8   0,0
14.11.1971     1016,7 2,2           0,0 2,8   1,8
15.11.1971     1023,0 3,5           1,1 4,3   0,3
16.11.1971     1013,7 4,0           3,5 4,4   4,6
17.11.1971     1010,7 1,7           0,9 5,3   2,5
18.11.1971     998,7 3,7           -0,4 6,6   38,1
19.11.1971     1000,9 -4,0           -5,4 4,1   0,5
20.11.1971     1020,2 -6,2           -9,5 -3,5   0,0
21.11.1971     998,6 -4,2           -8,3 -1,8   5,1
22.11.1971     993,1 0,0           -2,3 1,0   0,1
23.11.1971     997,9 -1,5           -2,6 -0,1   1,8
24.11.1971     1007,3 -3,8           -6,0 -2,0   0,8
25.11.1971     1013,4 -3,2           -5,4 -2,4   0,0
26.11.1971     1016,9 -0,4           -3,1 0,2   0,1
27.11.1971     1013,8 1,3           -0,6 4,0   0,0
28.11.1971     1001,4 0,6           -0,2 1,3   0,0
29.11.1971     1003,8 0,9           -0,1 1,3   0,0
30.11.1971     1003,9 0,3           -0,2 1,5   0,0
01.12.1971     1006,1 -0,6           -0,9 -0,2   0,0
02.12.1971     1010,1 -0,2           -1,0 0,5   0,0
03.12.1971     1022,5 0,5           -0,5 0,9   0,0
04.12.1971     1030,3 1,1           0,0 1,9   0,0
05.12.1971     1029,4 2,1           1,0 2,8   0,7
06.12.1971     1027,1 4,0           1,9 4,6   0,4
07.12.1971     1028,1 2,5           1,9 4,1   0,1
08.12.1971     1022,9 -2,3           -4,8 2,1   3,9
09.12.1971     1021,9 -6,0           -9,3 -4,6   3,2
10.12.1971     1014,3 1,7           -5,0 2,9   6,9
11.12.1971     1019,0 4,0           2,6 4,3   0,3
12.12.1971     1020,5 3,0           2,2 4,2   2,2
13.12.1971     1023,9 2,5           1,6 2,9   0,1
14.12.1971     1026,3 2,2           1,1 5,1   0,0
15.12.1971     1028,7 2,5           -0,6 5,0   0,0
16.12.1971     1031,3 2,7           1,1 3,8   0,0
17.12.1971     1029,0 1,4           0,4 4,0   0,0
18.12.1971     1025,7 -0,8           -2,9 5,1   0,0
19.12.1971     1021,4 1,2           -4,0 3,3   3,6
20.12.1971     1020,5 5,2           2,3 5,4   9,5
21.12.1971     1025,3 8,6           5,0 9,3   0,1
22.12.1971     1024,3 8,2           7,5 8,9   0,5
23.12.1971     1018,5 6,0           4,5 8,3   1,8
24.12.1971     1024,3 4,3           2,0 7,0   0,0
25.12.1971     1025,9 1,7           0,9 3,6   0,0
26.12.1971     1024,5 -0,4           -1,0 1,0   0,0
27.12.1971     1022,6 1,3           -1,9 2,3   0,0
28.12.1971     1014,3 -0,4           -1,8 2,6   1,6
29.12.1971     1016,7 -4,3           -7,7 -1,6   0,3
30.12.1971     1020,7 -1,8           -4,2 0,6   0,2
31.12.1971     1024,6 -1,0           -3,7 -0,2   0,0